sensor_id;sensor_type;location;lat;lon;timestamp;temperature;humidity
47576;DHT22;33304;52.456;13.328;2023-12-29T00:00:45;8.40;36.90
47576;DHT22;33304;52.456;13.328;2023-12-29T00:03:13;8.40;37.00
47576;DHT22;33304;52.456;13.328;2023-12-29T00:05:40;8.40;36.90
47576;DHT22;33304;52.456;13.328;2023-12-29T00:08:07;8.40;37.00
47576;DHT22;33304;52.456;13.328;2023-12-29T00:10:34;8.40;36.20
47576;DHT22;33304;52.456;13.328;2023-12-29T00:13:01;8.40;37.00
47576;DHT22;33304;52.456;13.328;2023-12-29T00:15:29;8.40;36.70
47576;DHT22;33304;52.456;13.328;2023-12-29T00:17:56;8.50;35.50
47576;DHT22;33304;52.456;13.328;2023-12-29T00:20:23;8.40;35.60
47576;DHT22;33304;52.456;13.328;2023-12-29T00:22:50;8.50;35.90
47576;DHT22;33304;52.456;13.328;2023-12-29T00:25:17;8.40;36.00
47576;DHT22;33304;52.456;13.328;2023-12-29T00:27:45;8.50;36.30
47576;DHT22;33304;52.456;13.328;2023-12-29T00:30:12;8.40;36.40
47576;DHT22;33304;52.456;13.328;2023-12-29T00:32:41;8.30;36.70
47576;DHT22;33304;52.456;13.328;2023-12-29T00:35:08;8.40;36.40
47576;DHT22;33304;52.456;13.328;2023-12-29T00:37:35;8.40;35.40
47576;DHT22;33304;52.456;13.328;2023-12-29T00:40:03;8.40;35.50
47576;DHT22;33304;52.456;13.328;2023-12-29T00:42:31;8.40;34.70
47576;DHT22;33304;52.456;13.328;2023-12-29T00:44:59;8.40;35.00
47576;DHT22;33304;52.456;13.328;2023-12-29T00:47:26;8.50;33.90
47576;DHT22;33304;52.456;13.328;2023-12-29T00:49:54;8.50;33.90
47576;DHT22;33304;52.456;13.328;2023-12-29T00:52:21;8.50;33.80
47576;DHT22;33304;52.456;13.328;2023-12-29T00:54:48;8.40;33.60
47576;DHT22;33304;52.456;13.328;2023-12-29T00:57:15;8.50;34.50
47576;DHT22;33304;52.456;13.328;2023-12-29T00:59:43;8.40;35.00
47576;DHT22;33304;52.456;13.328;2023-12-29T01:02:11;8.40;33.70
47576;DHT22;33304;52.456;13.328;2023-12-29T01:04:38;8.50;35.00
47576;DHT22;33304;52.456;13.328;2023-12-29T01:07:07;8.50;32.80
47576;DHT22;33304;52.456;13.328;2023-12-29T01:09:37;8.50;33.50
47576;DHT22;33304;52.456;13.328;2023-12-29T01:12:06;8.50;34.30
47576;DHT22;33304;52.456;13.328;2023-12-29T01:14:33;8.50;33.60
47576;DHT22;33304;52.456;13.328;2023-12-29T01:17:00;8.50;32.50
47576;DHT22;33304;52.456;13.328;2023-12-29T01:19:27;8.50;33.60
47576;DHT22;33304;52.456;13.328;2023-12-29T01:21:54;8.50;33.50
47576;DHT22;33304;52.456;13.328;2023-12-29T01:24:23;8.40;33.80
47576;DHT22;33304;52.456;13.328;2023-12-29T01:26:50;8.50;32.80
47576;DHT22;33304;52.456;13.328;2023-12-29T01:29:18;8.50;33.10
47576;DHT22;33304;52.456;13.328;2023-12-29T01:31:45;8.50;32.60
47576;DHT22;33304;52.456;13.328;2023-12-29T01:34:13;8.60;31.40
47576;DHT22;33304;52.456;13.328;2023-12-29T01:36:40;8.60;31.40
47576;DHT22;33304;52.456;13.328;2023-12-29T01:39:07;8.50;33.30
47576;DHT22;33304;52.456;13.328;2023-12-29T01:41:36;8.50;31.70
47576;DHT22;33304;52.456;13.328;2023-12-29T01:44:21;8.60;32.80
47576;DHT22;33304;52.456;13.328;2023-12-29T01:46:50;8.60;31.40
47576;DHT22;33304;52.456;13.328;2023-12-29T01:49:19;8.60;32.10
47576;DHT22;33304;52.456;13.328;2023-12-29T01:51:49;8.50;32.40
47576;DHT22;33304;52.456;13.328;2023-12-29T01:54:18;8.60;32.80
47576;DHT22;33304;52.456;13.328;2023-12-29T01:56:48;8.60;31.40
47576;DHT22;33304;52.456;13.328;2023-12-29T01:59:17;8.70;31.40
47576;DHT22;33304;52.456;13.328;2023-12-29T02:01:44;8.60;31.70
47576;DHT22;33304;52.456;13.328;2023-12-29T02:04:13;8.60;32.50
47576;DHT22;33304;52.456;13.328;2023-12-29T02:06:40;8.60;33.60
47576;DHT22;33304;52.456;13.328;2023-12-29T02:09:08;8.60;32.40
47576;DHT22;33304;52.456;13.328;2023-12-29T02:11:35;8.70;31.40
47576;DHT22;33304;52.456;13.328;2023-12-29T02:14:04;8.60;31.60
47576;DHT22;33304;52.456;13.328;2023-12-29T02:16:37;8.70;32.10
47576;DHT22;33304;52.456;13.328;2023-12-29T02:19:16;8.70;31.40
47576;DHT22;33304;52.456;13.328;2023-12-29T02:21:45;8.70;32.10
47576;DHT22;33304;52.456;13.328;2023-12-29T02:24:12;8.60;32.80
47576;DHT22;33304;52.456;13.328;2023-12-29T02:26:44;8.70;32.80
47576;DHT22;33304;52.456;13.328;2023-12-29T02:29:18;8.70;33.00
47576;DHT22;33304;52.456;13.328;2023-12-29T02:31:49;8.60;32.60
47576;DHT22;33304;52.456;13.328;2023-12-29T02:34:18;8.70;32.00
47576;DHT22;33304;52.456;13.328;2023-12-29T02:36:46;8.70;31.40
47576;DHT22;33304;52.456;13.328;2023-12-29T02:39:14;8.70;31.40
47576;DHT22;33304;52.456;13.328;2023-12-29T02:41:42;8.70;31.50
47576;DHT22;33304;52.456;13.328;2023-12-29T02:44:09;8.70;31.50
47576;DHT22;33304;52.456;13.328;2023-12-29T02:46:36;8.70;31.40
47576;DHT22;33304;52.456;13.328;2023-12-29T02:49:03;8.80;31.50
47576;DHT22;33304;52.456;13.328;2023-12-29T02:51:31;8.80;31.50
47576;DHT22;33304;52.456;13.328;2023-12-29T02:53:58;8.80;31.30
47576;DHT22;33304;52.456;13.328;2023-12-29T02:56:26;8.90;31.60
47576;DHT22;33304;52.456;13.328;2023-12-29T02:58:54;8.90;30.50
47576;DHT22;33304;52.456;13.328;2023-12-29T03:01:21;8.80;31.50
47576;DHT22;33304;52.456;13.328;2023-12-29T03:03:48;8.90;31.60
47576;DHT22;33304;52.456;13.328;2023-12-29T03:06:15;8.80;31.50
47576;DHT22;33304;52.456;13.328;2023-12-29T03:08:43;8.80;31.50
47576;DHT22;33304;52.456;13.328;2023-12-29T03:11:10;8.90;31.60
47576;DHT22;33304;52.456;13.328;2023-12-29T03:13:37;8.80;31.40
47576;DHT22;33304;52.456;13.328;2023-12-29T03:16:06;8.90;31.00
47576;DHT22;33304;52.456;13.328;2023-12-29T03:18:33;9.00;29.80
47576;DHT22;33304;52.456;13.328;2023-12-29T03:21:04;8.90;30.90
47576;DHT22;33304;52.456;13.328;2023-12-29T03:23:32;8.90;31.40
47576;DHT22;33304;52.456;13.328;2023-12-29T03:25:59;8.80;31.00
47576;DHT22;33304;52.456;13.328;2023-12-29T03:28:26;8.90;29.80
47576;DHT22;33304;52.456;13.328;2023-12-29T03:30:53;8.90;30.90
47576;DHT22;33304;52.456;13.328;2023-12-29T03:33:21;8.90;30.30
47576;DHT22;33304;52.456;13.328;2023-12-29T03:35:48;8.90;30.70
47576;DHT22;33304;52.456;13.328;2023-12-29T03:38:15;8.90;30.40
47576;DHT22;33304;52.456;13.328;2023-12-29T03:40:42;8.90;30.80
47576;DHT22;33304;52.456;13.328;2023-12-29T03:43:09;8.90;30.80
47576;DHT22;33304;52.456;13.328;2023-12-29T03:45:37;8.80;30.60
47576;DHT22;33304;52.456;13.328;2023-12-29T03:48:04;8.90;30.00
47576;DHT22;33304;52.456;13.328;2023-12-29T03:50:33;9.00;30.00
47576;DHT22;33304;52.456;13.328;2023-12-29T03:53:00;8.90;30.70
47576;DHT22;33304;52.456;13.328;2023-12-29T03:55:27;8.80;30.90
47576;DHT22;33304;52.456;13.328;2023-12-29T03:57:54;8.90;30.60
47576;DHT22;33304;52.456;13.328;2023-12-29T04:00:22;8.90;31.40
47576;DHT22;33304;52.456;13.328;2023-12-29T04:02:50;8.90;30.40
47576;DHT22;33304;52.456;13.328;2023-12-29T04:05:17;8.90;30.00
47576;DHT22;33304;52.456;13.328;2023-12-29T04:07:46;8.90;30.00
47576;DHT22;33304;52.456;13.328;2023-12-29T04:10:13;8.90;31.40
47576;DHT22;33304;52.456;13.328;2023-12-29T04:12:40;9.00;29.60
47576;DHT22;33304;52.456;13.328;2023-12-29T04:15:08;8.90;30.10
47576;DHT22;33304;52.456;13.328;2023-12-29T04:17:35;8.90;29.90
47576;DHT22;33304;52.456;13.328;2023-12-29T04:20:03;8.90;29.80
47576;DHT22;33304;52.456;13.328;2023-12-29T04:22:30;9.00;29.20
47576;DHT22;33304;52.456;13.328;2023-12-29T04:24:58;8.90;29.50
47576;DHT22;33304;52.456;13.328;2023-12-29T04:27:25;9.00;29.30
47576;DHT22;33304;52.456;13.328;2023-12-29T04:29:52;9.00;29.20
47576;DHT22;33304;52.456;13.328;2023-12-29T04:32:19;9.00;29.20
47576;DHT22;33304;52.456;13.328;2023-12-29T04:34:46;9.00;29.00
47576;DHT22;33304;52.456;13.328;2023-12-29T04:37:13;9.00;29.40
47576;DHT22;33304;52.456;13.328;2023-12-29T04:39:40;8.90;29.30
47576;DHT22;33304;52.456;13.328;2023-12-29T04:42:09;9.00;28.90
47576;DHT22;33304;52.456;13.328;2023-12-29T04:44:36;9.00;29.20
47576;DHT22;33304;52.456;13.328;2023-12-29T04:47:03;9.00;30.00
47576;DHT22;33304;52.456;13.328;2023-12-29T04:49:30;9.00;29.30
47576;DHT22;33304;52.456;13.328;2023-12-29T04:51:57;9.00;28.90
47576;DHT22;33304;52.456;13.328;2023-12-29T04:54:24;9.10;29.20
47576;DHT22;33304;52.456;13.328;2023-12-29T04:56:51;9.10;29.40
47576;DHT22;33304;52.456;13.328;2023-12-29T04:59:20;9.10;29.40
47576;DHT22;33304;52.456;13.328;2023-12-29T05:01:47;9.20;29.10
47576;DHT22;33304;52.456;13.328;2023-12-29T05:04:14;9.20;29.00
47576;DHT22;33304;52.456;13.328;2023-12-29T05:06:42;9.20;29.10
47576;DHT22;33304;52.456;13.328;2023-12-29T05:09:09;9.30;28.70
47576;DHT22;33304;52.456;13.328;2023-12-29T05:11:36;9.20;29.00
47576;DHT22;33304;52.456;13.328;2023-12-29T05:14:03;9.20;29.20
47576;DHT22;33304;52.456;13.328;2023-12-29T05:16:32;9.20;29.60
47576;DHT22;33304;52.456;13.328;2023-12-29T05:18:59;9.20;29.70
47576;DHT22;33304;52.456;13.328;2023-12-29T05:21:26;9.20;30.00
47576;DHT22;33304;52.456;13.328;2023-12-29T05:23:53;9.20;29.70
47576;DHT22;33304;52.456;13.328;2023-12-29T05:26:20;9.20;29.30
47576;DHT22;33304;52.456;13.328;2023-12-29T05:28:47;9.20;29.30
47576;DHT22;33304;52.456;13.328;2023-12-29T05:31:14;9.20;29.30
47576;DHT22;33304;52.456;13.328;2023-12-29T05:33:44;9.20;29.70
47576;DHT22;33304;52.456;13.328;2023-12-29T05:36:11;9.30;29.70
47576;DHT22;33304;52.456;13.328;2023-12-29T05:38:38;9.30;29.70
47576;DHT22;33304;52.456;13.328;2023-12-29T05:41:07;9.20;29.40
47576;DHT22;33304;52.456;13.328;2023-12-29T05:43:34;9.30;29.70
47576;DHT22;33304;52.456;13.328;2023-12-29T05:46:01;9.30;29.10
47576;DHT22;33304;52.456;13.328;2023-12-29T05:48:28;9.30;29.30
47576;DHT22;33304;52.456;13.328;2023-12-29T05:50:57;9.40;29.00
47576;DHT22;33304;52.456;13.328;2023-12-29T05:53:24;9.40;28.50
47576;DHT22;33304;52.456;13.328;2023-12-29T05:55:51;9.40;28.60
47576;DHT22;33304;52.456;13.328;2023-12-29T05:58:18;9.40;27.80
47576;DHT22;33304;52.456;13.328;2023-12-29T06:00:45;9.40;27.70
47576;DHT22;33304;52.456;13.328;2023-12-29T06:03:12;9.30;28.40
47576;DHT22;33304;52.456;13.328;2023-12-29T06:05:40;9.30;28.20
47576;DHT22;33304;52.456;13.328;2023-12-29T06:08:08;9.30;27.80
47576;DHT22;33304;52.456;13.328;2023-12-29T06:10:35;9.30;27.60
47576;DHT22;33304;52.456;13.328;2023-12-29T06:13:03;9.30;27.60
47576;DHT22;33304;52.456;13.328;2023-12-29T06:15:30;9.40;27.10
47576;DHT22;33304;52.456;13.328;2023-12-29T06:17:57;9.40;27.40
47576;DHT22;33304;52.456;13.328;2023-12-29T06:20:24;9.40;27.00
47576;DHT22;33304;52.456;13.328;2023-12-29T06:22:51;9.40;26.40
47576;DHT22;33304;52.456;13.328;2023-12-29T06:25:20;9.40;26.60
47576;DHT22;33304;52.456;13.328;2023-12-29T06:27:47;9.40;26.60
47576;DHT22;33304;52.456;13.328;2023-12-29T06:30:15;9.50;26.10
47576;DHT22;33304;52.456;13.328;2023-12-29T06:32:42;9.60;25.80
47576;DHT22;33304;52.456;13.328;2023-12-29T06:35:09;9.60;26.00
47576;DHT22;33304;52.456;13.328;2023-12-29T06:37:37;9.60;25.70
47576;DHT22;33304;52.456;13.328;2023-12-29T06:40:06;9.60;25.30
47576;DHT22;33304;52.456;13.328;2023-12-29T06:42:34;9.70;24.80
47576;DHT22;33304;52.456;13.328;2023-12-29T06:45:01;9.70;25.30
47576;DHT22;33304;52.456;13.328;2023-12-29T06:47:28;9.70;25.00
47576;DHT22;33304;52.456;13.328;2023-12-29T06:49:55;9.70;24.40
47576;DHT22;33304;52.456;13.328;2023-12-29T06:52:23;9.70;24.90
47576;DHT22;33304;52.456;13.328;2023-12-29T06:54:50;9.70;25.10
47576;DHT22;33304;52.456;13.328;2023-12-29T06:57:17;9.70;24.80
47576;DHT22;33304;52.456;13.328;2023-12-29T06:59:45;9.80;24.60
47576;DHT22;33304;52.456;13.328;2023-12-29T07:02:12;9.80;24.30
47576;DHT22;33304;52.456;13.328;2023-12-29T07:04:41;9.80;24.10
47576;DHT22;33304;52.456;13.328;2023-12-29T07:07:08;9.90;24.20
47576;DHT22;33304;52.456;13.328;2023-12-29T07:09:38;9.90;24.10
47576;DHT22;33304;52.456;13.328;2023-12-29T07:12:05;9.80;24.30
47576;DHT22;33304;52.456;13.328;2023-12-29T07:14:32;9.90;24.40
47576;DHT22;33304;52.456;13.328;2023-12-29T07:17:01;9.80;24.90
47576;DHT22;33304;52.456;13.328;2023-12-29T07:19:28;9.90;24.20
47576;DHT22;33304;52.456;13.328;2023-12-29T07:22:03;9.90;24.10
47576;DHT22;33304;52.456;13.328;2023-12-29T07:24:32;9.80;24.00
47576;DHT22;33304;52.456;13.328;2023-12-29T07:26:59;9.80;24.40
47576;DHT22;33304;52.456;13.328;2023-12-29T07:29:26;9.80;24.70
47576;DHT22;33304;52.456;13.328;2023-12-29T07:31:53;9.80;24.50
47576;DHT22;33304;52.456;13.328;2023-12-29T07:34:21;9.80;25.00
47576;DHT22;33304;52.456;13.328;2023-12-29T07:36:48;9.80;24.80
47576;DHT22;33304;52.456;13.328;2023-12-29T07:39:15;9.80;24.80
47576;DHT22;33304;52.456;13.328;2023-12-29T07:41:43;9.90;25.10
47576;DHT22;33304;52.456;13.328;2023-12-29T07:44:10;9.80;24.90
47576;DHT22;33304;52.456;13.328;2023-12-29T07:46:38;9.80;25.00
47576;DHT22;33304;52.456;13.328;2023-12-29T07:49:05;9.80;25.20
47576;DHT22;33304;52.456;13.328;2023-12-29T07:51:34;9.70;25.00
47576;DHT22;33304;52.456;13.328;2023-12-29T07:54:01;9.80;25.40
47576;DHT22;33304;52.456;13.328;2023-12-29T07:56:28;9.80;25.20
47576;DHT22;33304;52.456;13.328;2023-12-29T07:58:55;9.90;25.00
47576;DHT22;33304;52.456;13.328;2023-12-29T08:01:22;9.90;24.50
47576;DHT22;33304;52.456;13.328;2023-12-29T08:03:49;9.90;25.10
47576;DHT22;33304;52.456;13.328;2023-12-29T08:06:16;9.80;25.30
47576;DHT22;33304;52.456;13.328;2023-12-29T08:08:45;9.90;24.40
47576;DHT22;33304;52.456;13.328;2023-12-29T08:11:15;9.90;24.80
47576;DHT22;33304;52.456;13.328;2023-12-29T08:13:43;9.90;25.00
47576;DHT22;33304;52.456;13.328;2023-12-29T08:16:11;10.00;23.90
47576;DHT22;33304;52.456;13.328;2023-12-29T08:18:38;10.00;23.50
47576;DHT22;33304;52.456;13.328;2023-12-29T08:21:05;10.10;23.50
47576;DHT22;33304;52.456;13.328;2023-12-29T08:23:32;10.10;23.20
47576;DHT22;33304;52.456;13.328;2023-12-29T08:26:02;10.10;23.60
47576;DHT22;33304;52.456;13.328;2023-12-29T08:28:29;10.10;22.70
47576;DHT22;33304;52.456;13.328;2023-12-29T08:30:56;10.10;22.90
47576;DHT22;33304;52.456;13.328;2023-12-29T08:33:23;10.20;22.70
47576;DHT22;33304;52.456;13.328;2023-12-29T08:35:51;10.10;23.10
47576;DHT22;33304;52.456;13.328;2023-12-29T08:38:18;10.10;23.00
47576;DHT22;33304;52.456;13.328;2023-12-29T08:40:45;10.20;22.40
47576;DHT22;33304;52.456;13.328;2023-12-29T08:43:14;10.10;22.60
47576;DHT22;33304;52.456;13.328;2023-12-29T08:45:43;10.20;22.50
47576;DHT22;33304;52.456;13.328;2023-12-29T08:48:10;10.20;23.30
47576;DHT22;33304;52.456;13.328;2023-12-29T08:50:37;10.20;22.20
47576;DHT22;33304;52.456;13.328;2023-12-29T08:53:04;10.30;22.30
47576;DHT22;33304;52.456;13.328;2023-12-29T08:55:31;10.30;22.80
47576;DHT22;33304;52.456;13.328;2023-12-29T08:57:58;10.40;22.30
47576;DHT22;33304;52.456;13.328;2023-12-29T09:00:27;10.40;22.30
47576;DHT22;33304;52.456;13.328;2023-12-29T09:02:56;10.40;22.30
47576;DHT22;33304;52.456;13.328;2023-12-29T09:05:23;10.30;23.30
47576;DHT22;33304;52.456;13.328;2023-12-29T09:07:50;10.30;22.80
47576;DHT22;33304;52.456;13.328;2023-12-29T09:10:17;10.30;23.00
47576;DHT22;33304;52.456;13.328;2023-12-29T09:12:45;10.40;22.30
47576;DHT22;33304;52.456;13.328;2023-12-29T09:15:12;10.50;22.30
47576;DHT22;33304;52.456;13.328;2023-12-29T09:17:40;10.50;22.30
47576;DHT22;33304;52.456;13.328;2023-12-29T09:20:08;10.50;22.30
47576;DHT22;33304;52.456;13.328;2023-12-29T09:22:36;10.60;22.20
47576;DHT22;33304;52.456;13.328;2023-12-29T09:25:04;10.50;22.30
47576;DHT22;33304;52.456;13.328;2023-12-29T09:27:31;10.50;22.30
47576;DHT22;33304;52.456;13.328;2023-12-29T09:29:58;10.50;22.40
47576;DHT22;33304;52.456;13.328;2023-12-29T09:32:25;10.60;22.40
47576;DHT22;33304;52.456;13.328;2023-12-29T09:34:53;10.60;22.40
47576;DHT22;33304;52.456;13.328;2023-12-29T09:37:20;10.50;22.30
47576;DHT22;33304;52.456;13.328;2023-12-29T09:39:47;10.50;22.40
47576;DHT22;33304;52.456;13.328;2023-12-29T09:42:20;10.50;22.30
47576;DHT22;33304;52.456;13.328;2023-12-29T09:44:49;10.50;22.30
47576;DHT22;33304;52.456;13.328;2023-12-29T09:47:20;10.60;22.40
47576;DHT22;33304;52.456;13.328;2023-12-29T09:49:49;10.60;22.40
47576;DHT22;33304;52.456;13.328;2023-12-29T09:52:19;10.80;21.60
47576;DHT22;33304;52.456;13.328;2023-12-29T09:54:48;10.70;22.50
47576;DHT22;33304;52.456;13.328;2023-12-29T09:57:15;10.80;21.60
47576;DHT22;33304;52.456;13.328;2023-12-29T09:59:43;10.80;21.70
47576;DHT22;33304;52.456;13.328;2023-12-29T10:02:14;10.80;21.50
47576;DHT22;33304;52.456;13.328;2023-12-29T10:04:41;10.80;20.60
47576;DHT22;33304;52.456;13.328;2023-12-29T10:07:24;10.90;21.00
47576;DHT22;33304;52.456;13.328;2023-12-29T10:09:55;10.90;20.90
47576;DHT22;33304;52.456;13.328;2023-12-29T10:12:25;10.90;20.20
47576;DHT22;33304;52.456;13.328;2023-12-29T10:14:59;11.00;19.90
47576;DHT22;33304;52.456;13.328;2023-12-29T10:17:36;11.00;19.80
47576;DHT22;33304;52.456;13.328;2023-12-29T10:20:10;11.10;19.30
47576;DHT22;33304;52.456;13.328;2023-12-29T10:22:48;11.20;18.80
47576;DHT22;33304;52.456;13.328;2023-12-29T10:25:19;11.20;18.50
47576;DHT22;33304;52.456;13.328;2023-12-29T10:27:46;11.30;18.90
47576;DHT22;33304;52.456;13.328;2023-12-29T10:30:14;11.20;18.90
47576;DHT22;33304;52.456;13.328;2023-12-29T10:32:42;11.20;18.60
47576;DHT22;33304;52.456;13.328;2023-12-29T10:35:09;11.30;18.40
47576;DHT22;33304;52.456;13.328;2023-12-29T10:37:37;11.20;18.30
47576;DHT22;33304;52.456;13.328;2023-12-29T10:40:07;11.30;18.40
47576;DHT22;33304;52.456;13.328;2023-12-29T10:42:51;11.30;18.60
47576;DHT22;33304;52.456;13.328;2023-12-29T10:45:18;11.30;18.70
47576;DHT22;33304;52.456;13.328;2023-12-29T10:47:46;11.30;18.00
47576;DHT22;33304;52.456;13.328;2023-12-29T10:50:13;11.30;17.70
47576;DHT22;33304;52.456;13.328;2023-12-29T10:52:40;11.40;17.50
47576;DHT22;33304;52.456;13.328;2023-12-29T10:55:09;11.30;17.40
47576;DHT22;33304;52.456;13.328;2023-12-29T10:57:38;11.40;17.60
47576;DHT22;33304;52.456;13.328;2023-12-29T11:00:07;11.40;17.40
47576;DHT22;33304;52.456;13.328;2023-12-29T11:02:34;11.50;16.90
47576;DHT22;33304;52.456;13.328;2023-12-29T11:05:03;11.50;17.10
47576;DHT22;33304;52.456;13.328;2023-12-29T11:07:35;11.60;16.00
47576;DHT22;33304;52.456;13.328;2023-12-29T11:10:04;11.60;15.90
47576;DHT22;33304;52.456;13.328;2023-12-29T11:12:32;11.60;15.70
47576;DHT22;33304;52.456;13.328;2023-12-29T11:15:03;11.70;15.50
47576;DHT22;33304;52.456;13.328;2023-12-29T11:17:32;11.60;15.30
47576;DHT22;33304;52.456;13.328;2023-12-29T11:20:00;11.70;15.20
47576;DHT22;33304;52.456;13.328;2023-12-29T11:22:29;11.60;15.30
47576;DHT22;33304;52.456;13.328;2023-12-29T11:24:57;11.60;15.80
47576;DHT22;33304;52.456;13.328;2023-12-29T11:27:28;11.60;15.50
47576;DHT22;33304;52.456;13.328;2023-12-29T11:29:57;11.60;15.00
47576;DHT22;33304;52.456;13.328;2023-12-29T11:32:32;11.60;15.70
47576;DHT22;33304;52.456;13.328;2023-12-29T11:35:10;11.60;15.60
47576;DHT22;33304;52.456;13.328;2023-12-29T11:40:36;11.50;15.70
47576;DHT22;33304;52.456;13.328;2023-12-29T11:43:09;11.50;15.40
47576;DHT22;33304;52.456;13.328;2023-12-29T11:45:39;11.50;16.00
47576;DHT22;33304;52.456;13.328;2023-12-29T11:48:08;11.60;15.30
47576;DHT22;33304;52.456;13.328;2023-12-29T11:50:37;11.50;15.60
47576;DHT22;33304;52.456;13.328;2023-12-29T11:53:06;11.60;15.20
47576;DHT22;33304;52.456;13.328;2023-12-29T11:55:35;11.50;15.90
47576;DHT22;33304;52.456;13.328;2023-12-29T11:58:03;11.50;16.40
47576;DHT22;33304;52.456;13.328;2023-12-29T12:00:41;11.40;16.80
47576;DHT22;33304;52.456;13.328;2023-12-29T12:03:24;11.30;17.50
47576;DHT22;33304;52.456;13.328;2023-12-29T12:05:53;11.20;18.10
47576;DHT22;33304;52.456;13.328;2023-12-29T12:08:30;11.20;18.10
47576;DHT22;33304;52.456;13.328;2023-12-29T12:13:46;11.30;18.40
47576;DHT22;33304;52.456;13.328;2023-12-29T12:16:48;11.20;18.80
47576;DHT22;33304;52.456;13.328;2023-12-29T12:19:17;11.20;19.00
47576;DHT22;33304;52.456;13.328;2023-12-29T12:21:47;11.20;18.80
47576;DHT22;33304;52.456;13.328;2023-12-29T12:24:16;11.30;18.80
47576;DHT22;33304;52.456;13.328;2023-12-29T12:26:45;11.20;19.30
47576;DHT22;33304;52.456;13.328;2023-12-29T12:29:13;11.20;20.40
47576;DHT22;33304;52.456;13.328;2023-12-29T12:31:52;11.10;21.20
47576;DHT22;33304;52.456;13.328;2023-12-29T12:34:21;11.10;20.70
47576;DHT22;33304;52.456;13.328;2023-12-29T12:36:48;11.10;21.20
47576;DHT22;33304;52.456;13.328;2023-12-29T12:39:16;11.10;20.30
47576;DHT22;33304;52.456;13.328;2023-12-29T12:41:44;11.10;21.20
47576;DHT22;33304;52.456;13.328;2023-12-29T12:44:12;11.10;22.10
47576;DHT22;33304;52.456;13.328;2023-12-29T12:46:44;11.20;21.30
47576;DHT22;33304;52.456;13.328;2023-12-29T12:49:11;11.20;21.10
47576;DHT22;33304;52.456;13.328;2023-12-29T12:51:40;11.10;22.30
47576;DHT22;33304;52.456;13.328;2023-12-29T12:54:07;11.00;22.70
47576;DHT22;33304;52.456;13.328;2023-12-29T12:56:35;10.90;24.50
47576;DHT22;33304;52.456;13.328;2023-12-29T12:59:02;10.80;26.10
47576;DHT22;33304;52.456;13.328;2023-12-29T13:01:35;10.80;26.70
47576;DHT22;33304;52.456;13.328;2023-12-29T13:04:03;10.80;26.90
47576;DHT22;33304;52.456;13.328;2023-12-29T13:06:31;10.90;27.00
47576;DHT22;33304;52.456;13.328;2023-12-29T13:09:00;10.80;27.50
47576;DHT22;33304;52.456;13.328;2023-12-29T13:11:28;10.70;28.20
47576;DHT22;33304;52.456;13.328;2023-12-29T13:13:55;10.70;28.70
47576;DHT22;33304;52.456;13.328;2023-12-29T13:16:30;10.80;27.30
47576;DHT22;33304;52.456;13.328;2023-12-29T13:18:57;10.80;27.30
47576;DHT22;33304;52.456;13.328;2023-12-29T13:21:39;10.90;27.30
47576;DHT22;33304;52.456;13.328;2023-12-29T13:24:08;10.90;26.60
47576;DHT22;33304;52.456;13.328;2023-12-29T13:26:35;11.00;25.60
47576;DHT22;33304;52.456;13.328;2023-12-29T13:29:04;10.90;25.90
47576;DHT22;33304;52.456;13.328;2023-12-29T13:31:32;10.90;25.10
47576;DHT22;33304;52.456;13.328;2023-12-29T13:34:03;10.90;25.70
47576;DHT22;33304;52.456;13.328;2023-12-29T13:36:36;11.00;25.50
47576;DHT22;33304;52.456;13.328;2023-12-29T13:39:09;11.00;25.50
47576;DHT22;33304;52.456;13.328;2023-12-29T13:41:39;11.00;25.00
47576;DHT22;33304;52.456;13.328;2023-12-29T13:44:08;11.00;26.10
47576;DHT22;33304;52.456;13.328;2023-12-29T13:46:36;10.90;26.10
47576;DHT22;33304;52.456;13.328;2023-12-29T13:49:04;11.00;26.30
47576;DHT22;33304;52.456;13.328;2023-12-29T13:51:32;10.90;26.40
47576;DHT22;33304;52.456;13.328;2023-12-29T13:53:59;11.00;25.70
47576;DHT22;33304;52.456;13.328;2023-12-29T13:56:28;11.10;25.00
47576;DHT22;33304;52.456;13.328;2023-12-29T13:58:55;11.10;25.30
47576;DHT22;33304;52.456;13.328;2023-12-29T14:01:22;11.00;25.80
47576;DHT22;33304;52.456;13.328;2023-12-29T14:03:59;10.90;26.20
47576;DHT22;33304;52.456;13.328;2023-12-29T14:06:28;11.10;25.70
47576;DHT22;33304;52.456;13.328;2023-12-29T14:08:56;11.00;25.50
47576;DHT22;33304;52.456;13.328;2023-12-29T14:11:23;11.10;25.10
47576;DHT22;33304;52.456;13.328;2023-12-29T14:13:52;11.00;24.90
47576;DHT22;33304;52.456;13.328;2023-12-29T14:16:19;11.10;25.10
47576;DHT22;33304;52.456;13.328;2023-12-29T14:18:55;11.10;24.50
47576;DHT22;33304;52.456;13.328;2023-12-29T14:21:23;11.10;25.20
47576;DHT22;33304;52.456;13.328;2023-12-29T14:23:59;11.10;24.80
47576;DHT22;33304;52.456;13.328;2023-12-29T14:26:26;11.20;24.40
47576;DHT22;33304;52.456;13.328;2023-12-29T14:29:05;11.20;24.00
47576;DHT22;33304;52.456;13.328;2023-12-29T14:31:35;11.20;24.00
47576;DHT22;33304;52.456;13.328;2023-12-29T14:34:02;11.20;24.00
47576;DHT22;33304;52.456;13.328;2023-12-29T14:36:30;11.20;23.70
47576;DHT22;33304;52.456;13.328;2023-12-29T14:38:57;11.20;23.70
47576;DHT22;33304;52.456;13.328;2023-12-29T14:41:25;11.20;23.10
47576;DHT22;33304;52.456;13.328;2023-12-29T14:43:53;11.30;23.20
47576;DHT22;33304;52.456;13.328;2023-12-29T14:46:21;11.30;23.20
47576;DHT22;33304;52.456;13.328;2023-12-29T14:48:49;11.30;23.20
47576;DHT22;33304;52.456;13.328;2023-12-29T14:51:16;11.30;23.50
47576;DHT22;33304;52.456;13.328;2023-12-29T14:53:44;11.20;23.60
47576;DHT22;33304;52.456;13.328;2023-12-29T14:56:12;11.30;22.90
47576;DHT22;33304;52.456;13.328;2023-12-29T14:58:39;11.30;23.40
47576;DHT22;33304;52.456;13.328;2023-12-29T15:01:07;11.20;25.00
47576;DHT22;33304;52.456;13.328;2023-12-29T15:03:36;11.10;26.00
47576;DHT22;33304;52.456;13.328;2023-12-29T15:06:04;11.00;26.80
47576;DHT22;33304;52.456;13.328;2023-12-29T15:08:32;11.00;25.90
47576;DHT22;33304;52.456;13.328;2023-12-29T15:11:01;11.10;25.70
47576;DHT22;33304;52.456;13.328;2023-12-29T15:13:29;11.10;25.80
47576;DHT22;33304;52.456;13.328;2023-12-29T15:15:57;11.10;24.20
47576;DHT22;33304;52.456;13.328;2023-12-29T15:18:25;11.20;23.40
47576;DHT22;33304;52.456;13.328;2023-12-29T15:20:55;11.10;24.50
47576;DHT22;33304;52.456;13.328;2023-12-29T15:23:22;11.20;24.70
47576;DHT22;33304;52.456;13.328;2023-12-29T15:25:49;11.20;24.90
47576;DHT22;33304;52.456;13.328;2023-12-29T15:28:17;11.20;25.30
47576;DHT22;33304;52.456;13.328;2023-12-29T15:30:44;11.10;25.00
47576;DHT22;33304;52.456;13.328;2023-12-29T15:33:11;11.20;25.00
47576;DHT22;33304;52.456;13.328;2023-12-29T15:35:38;11.20;25.40
47576;DHT22;33304;52.456;13.328;2023-12-29T15:38:08;11.20;25.20